Time;durP1;ratioP1;P1;durP2;ratioP2;P2;SDS_P1;SDS_P2;PMS_P1;PMS_P2;Temp;Humidity;BMP_temperature;BMP_pressure;BME280_temperature;BME280_humidity;BME280_pressure;Samples;Min_cycle;Max_cycle;Signal;HPM_P1;HPM_P2
2024/02/02 00:01:59;;;;;;;0.40;0.40;;;5.50;99.90;;;;;;4401959;32;20078;-74
2024/02/02 00:04:24;;;;;;;1.08;1.05;;;5.50;99.90;;;;;;4400147;32;20138;-77
2024/02/02 00:06:50;;;;;;;0.30;0.30;;;5.40;99.90;;;;;;4399749;32;20066;-77
2024/02/02 00:09:15;;;;;;;0.60;0.60;;;5.40;99.90;;;;;;4402274;32;20121;-75
2024/02/02 00:11:41;;;;;;;1.70;1.15;;;5.50;99.90;;;;;;4400936;32;20078;-76
2024/02/02 00:14:06;;;;;;;0.30;0.30;;;5.40;99.90;;;;;;4403072;32;20093;-75
2024/02/02 00:16:32;;;;;;;0.77;0.77;;;5.40;99.90;;;;;;4407050;32;20073;-78
2024/02/02 00:18:57;;;;;;;0.73;0.73;;;5.40;99.90;;;;;;4406956;32;20411;-78
2024/02/02 00:21:22;;;;;;;5.60;2.20;;;5.30;99.90;;;;;;4401106;32;20085;-78
2024/02/02 00:23:48;;;;;;;6.80;2.42;;;5.40;99.90;;;;;;4404703;32;20435;-78
2024/02/02 00:26:13;;;;;;;3.05;0.77;;;5.40;99.90;;;;;;4404987;32;20208;-78
2024/02/02 00:28:39;;;;;;;5.95;2.58;;;5.40;99.90;;;;;;4404668;32;20094;-78
2024/02/02 00:31:04;;;;;;;0.75;0.75;;;5.30;99.90;;;;;;4402128;32;20106;-77
2024/02/02 00:33:31;;;;;;;0.60;0.60;;;5.40;99.90;;;;;;4400679;32;20546;-77
2024/02/02 00:35:57;;;;;;;6.65;2.05;;;5.40;99.90;;;;;;4401337;32;20090;-78
2024/02/02 00:38:22;;;;;;;0.85;0.82;;;5.30;99.90;;;;;;4406541;32;20097;-78
2024/02/02 00:40:48;;;;;;;2.67;1.15;;;5.30;99.90;;;;;;4408095;32;21185;-78
2024/02/02 00:43:13;;;;;;;0.52;0.52;;;5.30;99.90;;;;;;4405547;32;20127;-78
2024/02/02 00:45:39;;;;;;;0.50;0.50;;;5.40;99.90;;;;;;4400768;32;20414;-78
2024/02/02 00:48:05;;;;;;;0.50;0.50;;;5.40;99.90;;;;;;4404711;32;20077;-77
2024/02/02 00:50:30;;;;;;;0.60;0.60;;;5.50;99.90;;;;;;4404891;32;20762;-76
2024/02/02 00:52:56;;;;;;;0.95;0.95;;;5.40;99.90;;;;;;4404767;32;20074;-77
2024/02/02 00:55:21;;;;;;;3.53;0.62;;;5.50;99.90;;;;;;4403348;32;20849;-75
2024/02/02 00:57:47;;;;;;;0.40;0.40;;;5.50;99.90;;;;;;4406537;32;20494;-75
2024/02/02 01:00:13;;;;;;;0.73;0.73;;;5.50;99.90;;;;;;4406026;32;20090;-75
2024/02/02 01:02:40;;;;;;;0.75;0.73;;;5.50;99.90;;;;;;4404870;32;20154;-74
2024/02/02 01:05:06;;;;;;;0.93;0.88;;;5.40;99.90;;;;;;4403387;32;20069;-75
2024/02/02 01:07:31;;;;;;;0.55;0.52;;;5.40;99.90;;;;;;4407961;32;20755;-75
2024/02/02 01:09:57;;;;;;;29.23;0.68;;;5.40;99.90;;;;;;4403281;32;20081;-76
2024/02/02 01:12:22;;;;;;;3.65;2.10;;;5.40;99.90;;;;;;4403721;32;20069;-74
2024/02/02 01:14:48;;;;;;;0.40;0.40;;;5.40;99.90;;;;;;4403809;32;20082;-76
2024/02/02 01:17:13;;;;;;;1.75;0.93;;;5.40;99.90;;;;;;4409279;32;20061;-76
2024/02/02 01:19:41;;;;;;;0.30;0.30;;;5.40;99.90;;;;;;4406493;32;20125;-74
2024/02/02 01:22:06;;;;;;;3.20;1.55;;;5.40;99.90;;;;;;4404341;32;20367;-75
2024/02/02 01:24:32;;;;;;;0.40;0.40;;;5.50;99.90;;;;;;4406442;32;20525;-76
2024/02/02 01:26:57;;;;;;;0.95;0.95;;;5.40;99.90;;;;;;4400125;32;20119;-75
2024/02/02 01:29:25;;;;;;;2.83;0.82;;;5.40;99.90;;;;;;4405428;32;20229;-75
2024/02/02 01:31:50;;;;;;;0.30;0.30;;;5.40;99.90;;;;;;4402834;32;20090;-76
2024/02/02 01:34:16;;;;;;;0.60;0.60;;;5.50;99.90;;;;;;4402011;32;20081;-75
2024/02/02 01:36:42;;;;;;;0.85;0.77;;;5.40;99.90;;;;;;4404832;32;20089;-76
2024/02/02 01:39:11;;;;;;;0.30;0.30;;;5.40;99.90;;;;;;4403805;32;20419;-75
2024/02/02 01:41:38;;;;;;;2.62;0.70;;;5.50;99.90;;;;;;4405461;32;20073;-75
2024/02/02 01:44:04;;;;;;;0.37;0.37;;;5.50;99.90;;;;;;4403961;32;20081;-75
2024/02/02 01:46:29;;;;;;;0.40;0.40;;;5.50;99.90;;;;;;4403880;32;21249;-75
2024/02/02 01:48:57;;;;;;;38.25;2.30;;;5.50;99.90;;;;;;4403472;32;20089;-75
2024/02/02 01:51:23;;;;;;;0.88;0.70;;;5.40;99.90;;;;;;4405340;32;20567;-77
2024/02/02 01:53:49;;;;;;;0.75;0.75;;;5.40;99.90;;;;;;4407763;32;20069;-76
2024/02/02 01:56:14;;;;;;;0.70;0.70;;;5.40;99.90;;;;;;4403084;32;20089;-75
2024/02/02 01:58:40;;;;;;;1.45;0.50;;;5.40;99.90;;;;;;4404369;32;20136;-77
2024/02/02 02:01:05;;;;;;;2.30;1.55;;;5.40;99.90;;;;;;4406456;32;20089;-76
2024/02/02 02:03:31;;;;;;;0.68;0.62;;;5.40;99.90;;;;;;4404925;32;20419;-76
2024/02/02 02:05:56;;;;;;;8.43;2.33;;;5.40;99.90;;;;;;4403632;32;20093;-79
2024/02/02 02:08:22;;;;;;;0.62;0.62;;;5.40;99.90;;;;;;4398607;32;20470;-78
2024/02/02 02:10:48;;;;;;;0.75;0.62;;;5.40;99.90;;;;;;4402791;32;20074;-78
2024/02/02 02:13:13;;;;;;;0.30;0.30;;;5.40;99.90;;;;;;4401737;32;20078;-79
2024/02/02 02:15:39;;;;;;;4.18;1.95;;;5.40;99.90;;;;;;4403314;32;20493;-79
2024/02/02 02:18:05;;;;;;;2.42;0.90;;;5.40;99.90;;;;;;4406615;32;20089;-78
2024/02/02 02:20:31;;;;;;;1.17;0.60;;;5.50;99.90;;;;;;4404723;32;20066;-79
2024/02/02 02:22:56;;;;;;;0.70;0.65;;;5.50;99.90;;;;;;4405244;32;20169;-79
2024/02/02 02:25:22;;;;;;;2.78;2.15;;;5.40;99.90;;;;;;4401191;32;20090;-78
2024/02/02 02:27:48;;;;;;;5.28;2.55;;;5.40;99.90;;;;;;4401413;32;20636;-80
2024/02/02 02:30:14;;;;;;;0.30;0.30;;;5.40;99.90;;;;;;4400782;32;20443;-79
2024/02/02 02:32:39;;;;;;;1.00;0.90;;;5.40;99.90;;;;;;4404316;32;20074;-79
2024/02/02 02:35:05;;;;;;;0.90;0.90;;;5.40;99.90;;;;;;4406023;32;20074;-78
2024/02/02 02:37:30;;;;;;;2.10;1.15;;;5.40;99.90;;;;;;4402680;32;20529;-77
2024/02/02 02:39:57;;;;;;;0.55;0.55;;;5.30;99.90;;;;;;4407586;32;20523;-77
2024/02/02 02:42:23;;;;;;;4.62;1.25;;;5.30;99.90;;;;;;4404694;32;20065;-78
2024/02/02 02:44:49;;;;;;;3.20;1.55;;;5.30;99.90;;;;;;4402644;32;20093;-78
2024/02/02 02:47:14;;;;;;;0.40;0.40;;;5.30;99.90;;;;;;4402485;32;20486;-78
2024/02/02 02:49:39;;;;;;;3.25;0.95;;;5.30;99.90;;;;;;4408669;32;20127;-78
2024/02/02 02:52:05;;;;;;;0.45;0.45;;;5.40;99.90;;;;;;4403945;32;20464;-78
2024/02/02 02:54:32;;;;;;;2.37;1.05;;;5.40;99.90;;;;;;4405614;32;20132;-78
2024/02/02 02:56:58;;;;;;;0.50;0.50;;;5.40;99.90;;;;;;4401836;32;20066;-78
2024/02/02 02:59:23;;;;;;;13.25;1.37;;;5.40;99.90;;;;;;4403115;32;20081;-75
2024/02/02 03:01:49;;;;;;;1.27;1.20;;;5.40;99.90;;;;;;4403354;32;20108;-76
2024/02/02 03:04:14;;;;;;;0.45;0.43;;;5.40;99.90;;;;;;4402980;32;20511;-78
2024/02/02 03:06:40;;;;;;;3.45;0.88;;;5.40;99.90;;;;;;4403426;32;20588;-78
2024/02/02 03:09:05;;;;;;;0.47;0.47;;;5.40;99.90;;;;;;4404210;32;20073;-78
2024/02/02 03:11:31;;;;;;;0.50;0.50;;;5.40;99.90;;;;;;4404720;32;20462;-77
2024/02/02 03:13:57;;;;;;;0.55;0.55;;;5.40;99.90;;;;;;4402713;32;20066;-77
2024/02/02 03:16:22;;;;;;;12.85;4.00;;;5.50;99.90;;;;;;4402463;32;20094;-75
2024/02/02 03:18:48;;;;;;;4.47;2.65;;;5.50;99.90;;;;;;4404280;32;20090;-75
2024/02/02 03:21:13;;;;;;;2.00;1.52;;;5.50;99.90;;;;;;4405234;32;20798;-76
2024/02/02 03:23:39;;;;;;;0.70;0.70;;;5.50;99.90;;;;;;4405815;32;20118;-76
2024/02/02 03:26:06;;;;;;;3.42;1.55;;;5.40;99.90;;;;;;4402827;32;20070;-77
2024/02/02 03:28:33;;;;;;;3.92;1.45;;;5.40;99.90;;;;;;4402604;32;20552;-78
2024/02/02 03:30:59;;;;;;;1.40;1.30;;;5.40;99.90;;;;;;4403539;32;20081;-75
2024/02/02 03:33:24;;;;;;;2.40;1.40;;;5.40;99.90;;;;;;4404234;32;21316;-74
2024/02/02 03:35:49;;;;;;;0.75;0.75;;;5.40;99.90;;;;;;4403051;32;20078;-75
2024/02/02 03:38:15;;;;;;;2.72;1.23;;;5.40;99.90;;;;;;4400481;32;20577;-75
2024/02/02 03:40:41;;;;;;;20.08;1.95;;;5.40;99.90;;;;;;4404032;32;20088;-77
2024/02/02 03:43:06;;;;;;;6.43;2.20;;;5.40;99.90;;;;;;4403388;32;20086;-75
2024/02/02 03:45:32;;;;;;;0.60;0.60;;;5.40;99.90;;;;;;4403575;32;20126;-78
2024/02/02 03:48:00;;;;;;;0.50;0.50;;;5.40;99.90;;;;;;4407598;32;20082;-79
2024/02/02 03:50:25;;;;;;;2.47;1.08;;;5.30;99.90;;;;;;4407244;32;20073;-76
2024/02/02 03:52:51;;;;;;;0.55;0.55;;;5.30;99.90;;;;;;4401729;32;20521;-77
2024/02/02 03:55:16;;;;;;;1.67;0.82;;;5.30;99.90;;;;;;4402116;32;20101;-78
2024/02/02 03:57:42;;;;;;;1.17;1.10;;;5.30;99.90;;;;;;4399554;32;20069;-77
2024/02/02 04:02:35;;;;;;;4.53;1.30;;;5.40;99.90;;;;;;4396234;32;20651;-79
2024/02/02 04:05:02;;;;;;;5.18;1.65;;;5.30;99.90;;;;;;4399326;32;20093;-77
2024/02/02 04:07:27;;;;;;;0.60;0.60;;;5.30;99.90;;;;;;4400673;32;20583;-78
2024/02/02 04:09:52;;;;;;;0.60;0.60;;;5.30;99.90;;;;;;4400956;32;20516;-79
2024/02/02 04:12:18;;;;;;;3.53;1.05;;;5.30;99.90;;;;;;4404043;32;20106;-78
2024/02/02 04:14:44;;;;;;;1.23;1.12;;;5.40;99.90;;;;;;4403303;32;20075;-79
2024/02/02 04:17:09;;;;;;;1.27;0.70;;;5.40;99.90;;;;;;4410506;32;20536;-78
2024/02/02 04:19:35;;;;;;;1.05;0.98;;;5.40;99.90;;;;;;4406045;32;20062;-79
2024/02/02 04:22:00;;;;;;;8.75;0.73;;;5.40;99.90;;;;;;4406146;32;20066;-78
2024/02/02 04:24:26;;;;;;;3.72;0.90;;;5.40;99.90;;;;;;4407269;32;20074;-78
2024/02/02 04:26:51;;;;;;;1.08;0.98;;;5.40;99.90;;;;;;4404727;32;20098;-77
2024/02/02 04:29:17;;;;;;;2.30;1.85;;;5.50;99.90;;;;;;4405279;32;20069;-77
2024/02/02 04:31:42;;;;;;;1.05;0.82;;;5.40;99.90;;;;;;4404127;32;20511;-76
2024/02/02 04:34:08;;;;;;;0.80;0.80;;;5.40;99.90;;;;;;4406248;32;20136;-77
2024/02/02 04:36:33;;;;;;;0.40;0.40;;;5.40;99.90;;;;;;4404840;32;20598;-78
2024/02/02 04:39:00;;;;;;;1.02;0.85;;;5.40;99.90;;;;;;4407498;32;20085;-77
2024/02/02 04:41:25;;;;;;;2.15;1.60;;;5.40;99.90;;;;;;4403138;32;21621;-77
2024/02/02 04:43:51;;;;;;;1.08;0.68;;;5.40;99.90;;;;;;4405091;32;20097;-78
2024/02/02 04:46:18;;;;;;;7.93;1.17;;;5.40;99.90;;;;;;4406063;32;20088;-77
2024/02/02 04:48:44;;;;;;;5.78;1.42;;;5.30;99.90;;;;;;4405710;32;20089;-77
2024/02/02 04:51:09;;;;;;;1.23;1.15;;;5.30;99.90;;;;;;4407307;32;20062;-77
2024/02/02 04:53:34;;;;;;;1.45;1.30;;;5.40;99.90;;;;;;4404502;32;20077;-76
2024/02/02 04:56:00;;;;;;;3.03;1.62;;;5.40;99.90;;;;;;4402143;32;20073;-79
2024/02/02 04:58:26;;;;;;;0.68;0.65;;;5.40;99.90;;;;;;4404136;32;20081;-78
2024/02/02 05:00:51;;;;;;;0.85;0.85;;;5.40;99.90;;;;;;4405520;32;20577;-79
2024/02/02 05:03:17;;;;;;;0.75;0.75;;;5.40;99.90;;;;;;4404276;32;20435;-79
2024/02/02 05:05:42;;;;;;;0.40;0.40;;;5.30;99.90;;;;;;4404843;32;20089;-79
2024/02/02 05:08:08;;;;;;;0.50;0.50;;;5.30;99.90;;;;;;4403583;32;20533;-77
2024/02/02 05:10:34;;;;;;;0.88;0.88;;;5.30;99.90;;;;;;4404833;32;20133;-78
2024/02/02 05:13:00;;;;;;;3.97;0.93;;;5.30;99.90;;;;;;4402882;32;20097;-78
2024/02/02 05:15:25;;;;;;;0.90;0.90;;;5.40;99.90;;;;;;4400872;32;20137;-78
2024/02/02 05:17:51;;;;;;;1.85;0.60;;;5.30;99.90;;;;;;4403014;32;20074;-78
2024/02/02 05:20:16;;;;;;;2.75;1.60;;;5.20;99.90;;;;;;4404888;32;20074;-79
2024/02/02 05:22:42;;;;;;;3.60;0.47;;;5.20;99.90;;;;;;4401977;32;20525;-78
2024/02/02 05:25:09;;;;;;;22.92;1.58;;;5.20;99.90;;;;;;4404862;32;20075;-77
2024/02/02 05:27:36;;;;;;;0.40;0.40;;;5.30;99.90;;;;;;4400667;32;20508;-77
2024/02/02 05:30:01;;;;;;;3.28;2.00;;;5.30;99.90;;;;;;4402648;32;20077;-78
2024/02/02 05:32:27;;;;;;;0.50;0.50;;;5.20;99.90;;;;;;4405533;32;20081;-78
2024/02/02 05:34:52;;;;;;;2.53;1.00;;;5.20;99.90;;;;;;4405580;32;20085;-78
2024/02/02 05:37:18;;;;;;;1.05;0.98;;;5.10;99.90;;;;;;4406772;32;20077;-78
2024/02/02 05:39:43;;;;;;;0.45;0.45;;;5.20;99.90;;;;;;4405986;32;20169;-78
2024/02/02 05:42:09;;;;;;;1.17;1.05;;;5.20;99.90;;;;;;4406123;32;20141;-79
2024/02/02 05:44:34;;;;;;;0.40;0.40;;;5.20;99.90;;;;;;4404340;32;20510;-78
2024/02/02 05:47:00;;;;;;;0.40;0.40;;;5.30;99.90;;;;;;4407303;32;20069;-78
2024/02/02 05:49:25;;;;;;;2.85;1.95;;;5.30;99.90;;;;;;4407552;32;20070;-79
2024/02/02 05:51:51;;;;;;;4.43;1.37;;;5.40;99.90;;;;;;4399348;32;20097;-79
2024/02/02 05:54:16;;;;;;;0.65;0.65;;;5.30;99.90;;;;;;4401812;32;20086;-80
2024/02/02 05:56:42;;;;;;;0.68;0.68;;;5.30;99.90;;;;;;4404097;32;20093;-79
2024/02/02 05:59:08;;;;;;;0.77;0.77;;;5.30;99.90;;;;;;4401471;32;20085;-79
2024/02/02 06:01:34;;;;;;;18.60;1.05;;;5.30;99.90;;;;;;4400474;32;20086;-80
2024/02/02 06:03:59;;;;;;;0.60;0.60;;;5.30;99.90;;;;;;4403406;32;20120;-77
2024/02/02 06:06:26;;;;;;;0.90;0.90;;;5.30;99.90;;;;;;4392783;32;20102;-78
2024/02/02 06:08:51;;;;;;;14.00;2.12;;;5.30;99.90;;;;;;4403528;32;20066;-78
2024/02/02 06:11:17;;;;;;;0.50;0.50;;;5.30;99.90;;;;;;4403823;32;20530;-78
2024/02/02 06:13:42;;;;;;;18.52;0.60;;;5.30;99.90;;;;;;4393296;32;20086;-79
2024/02/02 06:16:09;;;;;;;1.65;1.40;;;5.40;99.90;;;;;;4400869;32;20129;-78
2024/02/02 06:18:35;;;;;;;0.40;0.37;;;5.40;99.90;;;;;;4401377;32;20525;-78
2024/02/02 06:21:02;;;;;;;1.20;0.90;;;5.40;99.90;;;;;;4393822;32;20595;-78
2024/02/02 06:23:30;;;;;;;3.83;1.52;;;5.40;99.90;;;;;;4402159;32;20857;-78
2024/02/02 06:25:55;;;;;;;2.80;1.05;;;5.40;99.90;;;;;;4395273;32;20090;-78
2024/02/02 06:28:21;;;;;;;0.30;0.30;;;5.50;99.90;;;;;;4392020;32;20358;-78
2024/02/02 06:30:49;;;;;;;1.35;1.25;;;5.50;99.90;;;;;;4403735;32;20098;-78
2024/02/02 06:33:16;;;;;;;0.40;0.40;;;5.50;99.90;;;;;;4401575;32;20541;-78
2024/02/02 06:35:43;;;;;;;1.42;1.08;;;5.50;99.90;;;;;;4404258;32;20140;-78
2024/02/02 06:38:12;;;;;;;2.85;2.20;;;5.50;99.90;;;;;;4400754;32;20592;-79
2024/02/02 06:40:38;;;;;;;0.50;0.50;;;5.50;99.90;;;;;;4394674;32;20809;-79
2024/02/02 06:43:04;;;;;;;0.50;0.50;;;5.50;99.90;;;;;;4400588;32;20185;-78
2024/02/02 06:45:30;;;;;;;0.65;0.65;;;5.50;99.90;;;;;;4399230;32;20066;-79
2024/02/02 06:47:56;;;;;;;5.28;2.28;;;5.50;99.90;;;;;;4395152;32;20221;-78
2024/02/02 06:50:21;;;;;;;8.95;1.58;;;5.50;99.90;;;;;;4398073;32;20522;-79
2024/02/02 06:52:47;;;;;;;4.03;1.50;;;5.50;99.90;;;;;;4398722;32;21659;-80
2024/02/02 06:55:14;;;;;;;4.35;1.90;;;5.50;99.90;;;;;;4398805;32;20272;-78
2024/02/02 06:57:40;;;;;;;0.75;0.75;;;5.60;99.90;;;;;;4387615;32;21645;-79
2024/02/02 07:02:35;;;;;;;0.40;0.40;;;5.50;99.90;;;;;;4384535;32;20837;-77
2024/02/02 07:05:01;;;;;;;3.12;0.68;;;5.50;99.90;;;;;;4383701;32;20322;-77
2024/02/02 07:07:26;;;;;;;2.80;2.35;;;5.60;99.90;;;;;;4381558;32;20401;-78
2024/02/02 07:09:56;;;;;;;0.50;0.50;;;5.60;99.90;;;;;;4386896;32;20667;-77
2024/02/02 07:12:57;;;;;;;0.30;0.30;;;5.60;99.90;;;;;;4389215;32;20109;-78
2024/02/02 07:15:27;;;;;;;2.20;1.40;;;5.60;99.90;;;;;;4372008;32;20106;-78
2024/02/02 07:17:53;;;;;;;1.08;0.98;;;5.50;99.90;;;;;;4381783;32;20094;-78
2024/02/02 07:20:52;;;;;;;0.52;0.50;;;5.60;99.90;;;;;;4386448;32;20176;-77
2024/02/02 07:23:31;;;;;;;0.40;0.40;;;5.50;99.90;;;;;;4377120;32;20106;-78
2024/02/02 07:25:57;;;;;;;0.80;0.80;;;5.50;99.90;;;;;;4393555;32;20084;-77
2024/02/02 07:28:35;;;;;;;0.35;0.35;;;5.50;99.90;;;;;;4390066;32;20097;-78
2024/02/02 07:31:02;;;;;;;0.50;0.50;;;5.50;99.90;;;;;;4391844;32;20795;-78
2024/02/02 07:33:47;;;;;;;0.60;0.60;;;5.50;99.90;;;;;;4384768;32;21221;-78
2024/02/02 07:36:33;;;;;;;0.52;0.52;;;5.60;99.90;;;;;;4387280;32;20086;-78
2024/02/02 07:39:01;;;;;;;0.50;0.50;;;5.60;99.90;;;;;;4387392;32;20085;-78
2024/02/02 07:41:27;;;;;;;0.85;0.85;;;5.70;99.90;;;;;;4383711;32;20154;-78
2024/02/02 07:43:57;;;;;;;4.85;0.52;;;5.70;99.90;;;;;;4386467;32;20106;-78
2024/02/02 07:46:23;;;;;;;9.13;0.90;;;5.70;99.90;;;;;;4392075;32;20097;-79
2024/02/02 07:48:50;;;;;;;7.75;1.60;;;5.70;99.90;;;;;;4384253;32;20514;-78
2024/02/02 07:51:18;;;;;;;0.60;0.60;;;5.70;99.90;;;;;;4390295;32;20132;-78
2024/02/02 07:53:45;;;;;;;0.40;0.40;;;5.80;99.90;;;;;;4389939;32;20066;-78
2024/02/02 07:56:20;;;;;;;0.50;0.50;;;5.80;99.90;;;;;;4386105;32;20097;-77
2024/02/02 07:58:46;;;;;;;0.62;0.62;;;5.80;99.90;;;;;;4383154;32;20184;-77
2024/02/02 08:01:11;;;;;;;0.60;0.60;;;5.80;99.90;;;;;;4387633;32;20097;-77
2024/02/02 08:03:37;;;;;;;2.00;1.20;;;5.80;99.90;;;;;;4389914;32;20135;-77
2024/02/02 08:06:04;;;;;;;0.30;0.30;;;5.90;99.90;;;;;;4390268;32;20077;-75
2024/02/02 08:08:31;;;;;;;2.40;1.15;;;5.90;99.90;;;;;;4384765;32;20078;-77
2024/02/02 08:10:58;;;;;;;0.43;0.43;;;5.90;99.90;;;;;;4382475;32;20109;-78
2024/02/02 08:13:23;;;;;;;1.00;0.88;;;5.90;99.90;;;;;;4382008;32;20144;-78
2024/02/02 08:15:49;;;;;;;0.55;0.55;;;5.90;99.90;;;;;;4381156;32;20077;-78
2024/02/02 08:18:14;;;;;;;13.77;2.90;;;5.90;99.90;;;;;;4384619;32;20178;-77
2024/02/02 08:20:40;;;;;;;8.43;1.75;;;6.00;99.90;;;;;;4387565;32;20408;-80
2024/02/02 08:23:06;;;;;;;2.28;1.05;;;6.00;99.90;;;;;;4385725;32;20111;-78
2024/02/02 08:25:32;;;;;;;2.40;1.12;;;6.10;99.90;;;;;;4386073;32;20887;-78
2024/02/02 08:27:59;;;;;;;0.50;0.50;;;6.20;99.90;;;;;;4364213;32;20718;-78
2024/02/02 08:30:25;;;;;;;0.30;0.30;;;6.10;99.90;;;;;;4384704;32;21132;-78
2024/02/02 08:32:53;;;;;;;1.12;0.50;;;6.20;99.90;;;;;;4384095;32;20850;-77
2024/02/02 08:35:22;;;;;;;0.95;0.85;;;6.20;99.90;;;;;;4378704;32;20117;-78
2024/02/02 08:37:51;;;;;;;0.30;0.30;;;6.20;99.90;;;;;;4386585;32;20388;-77
2024/02/02 08:40:38;;;;;;;0.43;0.43;;;6.20;99.90;;;;;;4380631;32;20196;-79
2024/02/02 08:43:08;;;;;;;0.50;0.50;;;6.30;99.90;;;;;;4376281;32;20085;-76
2024/02/02 08:45:43;;;;;;;2.17;1.15;;;6.40;99.90;;;;;;4382404;32;20096;-79
2024/02/02 08:48:32;;;;;;;3.60;1.75;;;6.50;99.90;;;;;;4374785;32;20128;-78
2024/02/02 08:50:58;;;;;;;8.15;1.05;;;6.50;99.90;;;;;;4370698;32;20436;-78
2024/02/02 08:53:25;;;;;;;9.43;1.83;;;6.60;99.90;;;;;;4383946;32;20197;-79
2024/02/02 08:55:51;;;;;;;0.30;0.30;;;6.60;99.90;;;;;;4375822;32;21038;-79
2024/02/02 08:58:23;;;;;;;1.77;1.02;;;6.60;99.90;;;;;;4381125;32;20382;-78
2024/02/02 09:00:51;;;;;;;0.30;0.30;;;6.60;99.90;;;;;;4378849;32;20082;-79
2024/02/02 09:03:24;;;;;;;3.03;1.15;;;6.70;99.90;;;;;;4380494;32;20145;-79
2024/02/02 09:05:52;;;;;;;0.90;0.73;;;6.70;99.90;;;;;;4382090;32;20714;-79
2024/02/02 09:08:27;;;;;;;0.80;0.80;;;6.80;99.90;;;;;;4384519;32;20202;-80
2024/02/02 09:11:11;;;;;;;0.50;0.50;;;6.80;99.90;;;;;;4384971;32;20537;-79
2024/02/02 09:13:38;;;;;;;6.68;2.15;;;6.80;99.90;;;;;;4385946;32;20188;-79
2024/02/02 09:16:05;;;;;;;11.00;2.15;;;6.80;99.90;;;;;;4391422;32;20089;-80
2024/02/02 09:18:37;;;;;;;2.35;0.60;;;6.90;99.90;;;;;;4390267;32;20173;-81
2024/02/02 09:21:05;;;;;;;0.80;0.73;;;6.90;99.90;;;;;;4390011;32;20109;-79
2024/02/02 09:23:32;;;;;;;10.48;0.82;;;6.90;99.90;;;;;;4381981;32;20085;-79
2024/02/02 09:26:03;;;;;;;0.93;0.93;;;6.90;99.90;;;;;;4389840;32;20206;-79
2024/02/02 09:28:37;;;;;;;0.93;0.93;;;6.90;99.90;;;;;;4391001;32;20089;-78
2024/02/02 09:31:15;;;;;;;0.30;0.30;;;6.80;99.90;;;;;;4382199;32;20145;-80
2024/02/02 09:33:56;;;;;;;0.40;0.40;;;6.90;99.90;;;;;;4388853;32;20205;-78
2024/02/02 09:36:26;;;;;;;4.30;1.60;;;6.80;99.90;;;;;;4386543;32;20102;-77
2024/02/02 09:38:56;;;;;;;1.55;1.02;;;6.80;99.90;;;;;;4377882;32;20105;-77
2024/02/02 09:41:50;;;;;;;0.40;0.40;;;6.80;99.90;;;;;;4395546;32;21027;-78
2024/02/02 09:44:37;;;;;;;0.37;0.37;;;6.80;99.90;;;;;;4386713;32;20078;-77
2024/02/02 09:47:29;;;;;;;1.27;0.77;;;6.80;99.90;;;;;;4389935;32;20194;-77
2024/02/02 09:50:06;;;;;;;1.20;1.10;;;6.80;99.90;;;;;;4389929;32;20444;-77
2024/02/02 09:53:12;;;;;;;0.82;0.82;;;6.80;99.90;;;;;;4385638;32;20501;-77
2024/02/02 09:56:07;;;;;;;1.60;1.17;;;6.80;99.90;;;;;;4388802;32;21234;-77
2024/02/02 09:58:43;;;;;;;0.40;0.40;;;6.70;99.90;;;;;;4380910;32;20138;-77
2024/02/02 10:01:23;;;;;;;0.40;0.40;;;6.80;99.90;;;;;;4399041;32;20089;-77
2024/02/02 10:04:14;;;;;;;0.30;0.30;;;6.80;99.90;;;;;;4384754;32;20093;-77
2024/02/02 10:06:52;;;;;;;6.03;1.20;;;6.70;99.90;;;;;;4387641;32;20518;-77
2024/02/02 10:09:48;;;;;;;1.95;1.00;;;6.80;99.90;;;;;;4399001;32;20081;-77
2024/02/02 10:12:24;;;;;;;0.68;0.68;;;6.80;99.90;;;;;;4383587;32;20396;-78
2024/02/02 10:15:19;;;;;;;0.52;0.52;;;6.80;99.90;;;;;;4398326;32;20132;-77
2024/02/02 10:18:10;;;;;;;0.55;0.55;;;6.80;99.90;;;;;;4385515;32;20134;-76
2024/02/02 10:21:04;;;;;;;0.35;0.35;;;6.90;99.90;;;;;;4399537;32;20086;-77
2024/02/02 10:23:47;;;;;;;0.73;0.57;;;6.90;99.90;;;;;;4387257;32;20078;-76
2024/02/02 10:26:45;;;;;;;2.20;1.10;;;7.00;99.90;;;;;;4397937;32;20215;-77
2024/02/02 10:29:25;;;;;;;3.22;0.82;;;7.00;99.90;;;;;;4388274;32;20134;-76
2024/02/02 10:32:08;;;;;;;0.40;0.40;;;7.10;99.90;;;;;;4398933;32;20093;-76
2024/02/02 10:34:53;;;;;;;0.50;0.50;;;7.10;99.90;;;;;;4399490;32;20117;-76
2024/02/02 10:37:36;;;;;;;0.85;0.85;;;7.10;99.90;;;;;;4396799;32;20162;-75
2024/02/02 10:40:11;;;;;;;0.40;0.40;;;7.10;99.90;;;;;;4393304;32;20144;-77
2024/02/02 10:42:51;;;;;;;2.25;1.25;;;7.20;99.90;;;;;;4384397;32;20093;-77
2024/02/02 10:45:44;;;;;;;0.30;0.30;;;7.30;99.90;;;;;;4401375;32;20084;-77
2024/02/02 10:48:51;;;;;;;0.88;0.85;;;7.40;99.90;;;;;;4388313;32;20097;-77
2024/02/02 10:51:42;;;;;;;6.32;1.27;;;7.40;99.90;;;;;;4388874;32;20062;-77
2024/02/02 10:54:20;;;;;;;0.30;0.30;;;7.50;99.90;;;;;;4391510;32;20069;-76
2024/02/02 10:57:17;;;;;;;0.30;0.30;;;7.60;99.90;;;;;;4402739;32;20128;-75
2024/02/02 11:03:01;;;;;;;0.30;0.30;;;7.70;99.90;;;;;;4400241;32;20146;-75
2024/02/02 11:05:41;;;;;;;0.30;0.30;;;7.60;99.90;;;;;;4390993;32;20085;-76
2024/02/02 11:08:16;;;;;;;0.40;0.40;;;7.60;99.90;;;;;;4396620;32;20080;-77
2024/02/02 11:11:03;;;;;;;0.37;0.37;;;7.70;99.90;;;;;;4400981;32;20125;-76
2024/02/02 11:13:41;;;;;;;0.25;0.25;;;7.60;99.90;;;;;;4384824;32;20074;-75
2024/02/02 11:16:46;;;;;;;0.30;0.30;;;7.70;99.90;;;;;;4396968;32;20120;-78
2024/02/02 11:19:25;;;;;;;0.25;0.25;;;7.70;99.90;;;;;;4391336;32;20089;-76
2024/02/02 11:22:06;;;;;;;0.95;0.95;;;7.70;99.90;;;;;;4401155;32;20155;-77
2024/02/02 11:25:00;;;;;;;0.35;0.35;;;7.70;99.90;;;;;;4385542;32;20487;-76
2024/02/02 11:28:01;;;;;;;0.30;0.30;;;7.70;99.90;;;;;;4386561;32;20128;-79
2024/02/02 11:30:46;;;;;;;0.30;0.30;;;7.70;99.90;;;;;;4387960;32;20088;-77
2024/02/02 11:33:23;;;;;;;0.30;0.30;;;7.70;99.90;;;;;;4397201;32;20603;-74
2024/02/02 11:36:02;;;;;;;0.30;0.30;;;7.70;99.90;;;;;;4399452;32;20362;-76
2024/02/02 11:38:44;;;;;;;0.65;0.65;;;7.70;99.90;;;;;;4401178;32;20073;-76
2024/02/02 11:41:16;;;;;;;0.30;0.30;;;7.80;99.90;;;;;;4401200;32;20097;-75
2024/02/02 11:43:44;;;;;;;0.82;0.82;;;7.90;99.90;;;;;;4399328;32;20057;-76
2024/02/02 11:46:10;;;;;;;1.60;0.75;;;8.10;99.90;;;;;;4401092;32;20125;-78
2024/02/02 11:48:40;;;;;;;1.10;0.73;;;8.20;99.90;;;;;;4402060;32;20078;-75
2024/02/02 11:51:09;;;;;;;0.30;0.30;;;8.20;99.90;;;;;;4404384;32;20545;-75
2024/02/02 11:53:44;;;;;;;0.43;0.43;;;8.10;99.90;;;;;;4400616;32;179967;-76
2024/02/02 11:56:19;;;;;;;0.55;0.55;;;8.10;99.90;;;;;;4389162;32;20089;-77
2024/02/02 11:58:59;;;;;;;0.55;0.55;;;8.00;99.90;;;;;;4401746;32;20084;-75
2024/02/02 12:01:29;;;;;;;0.30;0.30;;;8.00;99.90;;;;;;4403263;32;20074;-77
2024/02/02 12:04:07;;;;;;;0.97;0.70;;;7.90;99.90;;;;;;4389429;32;20622;-76
2024/02/02 12:06:44;;;;;;;0.50;0.50;;;7.90;99.90;;;;;;4404127;32;20714;-77
2024/02/02 12:09:18;;;;;;;0.55;0.55;;;7.90;99.90;;;;;;4392074;32;20098;-77
2024/02/02 12:11:48;;;;;;;0.50;0.50;;;7.70;99.90;;;;;;4402673;32;20479;-76
2024/02/02 12:14:26;;;;;;;2.30;1.30;;;7.70;99.90;;;;;;4401833;32;20545;-78
2024/02/02 12:16:52;;;;;;;0.52;0.47;;;7.70;99.90;;;;;;4402372;32;20814;-77
2024/02/02 12:19:18;;;;;;;4.93;0.98;;;7.80;99.90;;;;;;4401666;32;20392;-77
2024/02/02 12:21:45;;;;;;;1.15;1.02;;;7.80;99.90;;;;;;4402310;32;21156;-78
2024/02/02 12:24:11;;;;;;;0.73;0.73;;;7.80;99.90;;;;;;4406087;32;20098;-75
2024/02/02 12:26:38;;;;;;;0.70;0.70;;;7.80;99.90;;;;;;4402357;32;20090;-77
2024/02/02 12:29:04;;;;;;;0.40;0.40;;;7.80;99.90;;;;;;4403678;32;20077;-75
2024/02/02 12:31:30;;;;;;;1.15;1.05;;;7.80;99.90;;;;;;4403880;32;20129;-78
2024/02/02 12:33:57;;;;;;;2.20;1.50;;;7.80;99.90;;;;;;4405809;32;20073;-77
2024/02/02 12:36:22;;;;;;;0.50;0.50;;;7.80;99.90;;;;;;4394053;32;20533;-77
2024/02/02 12:38:58;;;;;;;1.20;0.93;;;7.60;99.90;;;;;;4404381;32;20082;-77
2024/02/02 12:41:23;;;;;;;0.70;0.70;;;7.70;99.90;;;;;;4388615;32;20141;-77
2024/02/02 12:43:49;;;;;;;0.52;0.52;;;7.60;99.90;;;;;;4404305;32;20077;-76
2024/02/02 12:46:14;;;;;;;0.50;0.50;;;7.60;99.90;;;;;;4403889;32;20082;-76
2024/02/02 12:48:40;;;;;;;0.57;0.45;;;7.50;99.90;;;;;;4402484;32;20077;-77
2024/02/02 12:51:06;;;;;;;0.25;0.25;;;7.60;99.90;;;;;;4407584;32;20427;-77
2024/02/02 12:53:35;;;;;;;1.85;0.82;;;7.70;99.90;;;;;;4402034;32;20136;-77
2024/02/02 12:56:01;;;;;;;0.35;0.35;;;7.60;99.90;;;;;;4405762;32;20098;-77
2024/02/02 12:58:26;;;;;;;0.60;0.60;;;7.60;99.90;;;;;;4406185;32;20094;-76
2024/02/02 13:00:53;;;;;;;0.52;0.52;;;7.60;99.90;;;;;;4403435;32;20074;-75
2024/02/02 13:03:19;;;;;;;0.75;0.60;;;7.50;99.90;;;;;;4404105;32;20070;-78
2024/02/02 13:05:55;;;;;;;0.25;0.25;;;7.50;99.90;;;;;;4407354;32;20074;-75
2024/02/02 13:08:30;;;;;;;0.98;0.93;;;7.60;99.90;;;;;;4404010;32;20089;-75
2024/02/02 13:10:58;;;;;;;1.48;0.82;;;7.50;99.90;;;;;;4408268;32;20090;-76
2024/02/02 13:13:27;;;;;;;0.30;0.30;;;7.50;99.90;;;;;;4401329;32;20087;-76
2024/02/02 13:15:54;;;;;;;0.37;0.37;;;7.60;99.90;;;;;;4403564;32;20082;-76
2024/02/02 13:18:24;;;;;;;0.40;0.40;;;7.60;99.90;;;;;;4403098;32;20119;-75
2024/02/02 13:20:53;;;;;;;0.80;0.80;;;7.50;99.90;;;;;;4406735;32;20065;-75